Time;durP1;ratioP1;P1;durP2;ratioP2;P2;SDS_P1;SDS_P2;PMS_P1;PMS_P2;Temp;Humidity;BMP_temperature;BMP_pressure;BME280_temperature;BME280_humidity;BME280_pressure;Samples;Min_cycle;Max_cycle;Signal;HPM_P1;HPM_P2
2023/07/01 00:01:59;;;;;;;1.52;1.38;;;24.10;54.80;;;;;;5109342;27;45269;-66
2023/07/01 00:04:27;;;;;;;2.25;1.40;;;24.10;55.40;;;;;;5108959;27;46585;-66
2023/07/01 00:06:54;;;;;;;1.40;1.30;;;24.10;54.70;;;;;;5109217;27;45272;-66
2023/07/01 00:09:22;;;;;;;1.60;1.50;;;24.00;54.60;;;;;;5109073;27;45244;-66
2023/07/01 00:11:49;;;;;;;1.17;1.10;;;24.10;54.70;;;;;;5109102;27;45371;-66
2023/07/01 00:14:16;;;;;;;1.83;1.40;;;24.00;54.60;;;;;;5108693;27;45342;-66
2023/07/01 00:16:43;;;;;;;1.55;1.42;;;24.00;54.60;;;;;;5108780;27;45447;-66
2023/07/01 00:19:10;;;;;;;1.50;1.17;;;24.00;54.50;;;;;;5109104;27;44768;-66
2023/07/01 00:21:36;;;;;;;1.40;1.30;;;24.00;54.50;;;;;;5109185;27;45260;-66
2023/07/01 00:24:04;;;;;;;1.70;1.60;;;24.00;54.50;;;;;;5108771;27;46378;-66
2023/07/01 00:26:32;;;;;;;1.20;1.10;;;24.00;54.60;;;;;;5108737;27;45356;-66
2023/07/01 00:28:59;;;;;;;4.43;1.60;;;24.00;55.10;;;;;;5109045;27;45515;-66
2023/07/01 00:31:25;;;;;;;1.50;1.40;;;24.00;54.50;;;;;;5108846;27;45354;-66
2023/07/01 00:33:52;;;;;;;1.20;1.10;;;24.00;54.50;;;;;;5108522;27;45205;-66
2023/07/01 00:36:19;;;;;;;1.35;1.20;;;24.00;54.40;;;;;;5108433;27;45712;-67
2023/07/01 00:38:46;;;;;;;1.30;1.20;;;23.90;54.40;;;;;;5108705;27;45351;-67
2023/07/01 00:41:14;;;;;;;1.40;1.30;;;24.00;54.40;;;;;;5108710;27;45349;-67
2023/07/01 00:43:43;;;;;;;1.27;1.17;;;24.00;54.40;;;;;;5108405;27;46641;-67
2023/07/01 00:46:09;;;;;;;2.22;1.20;;;23.90;54.40;;;;;;5108437;27;45385;-66
2023/07/01 00:48:36;;;;;;;2.58;1.10;;;23.90;54.30;;;;;;5108451;27;45408;-68
2023/07/01 00:51:03;;;;;;;1.40;1.30;;;23.90;54.40;;;;;;5108610;27;45308;-68
2023/07/01 00:53:30;;;;;;;1.63;1.30;;;23.90;54.30;;;;;;5107138;27;47328;-67
2023/07/01 00:55:57;;;;;;;2.22;1.40;;;23.90;54.40;;;;;;5108181;27;45125;-67
2023/07/01 00:58:24;;;;;;;1.20;1.10;;;23.80;54.20;;;;;;5108297;27;45258;-67
2023/07/01 01:00:56;;;;;;;1.17;1.08;;;23.90;54.30;;;;;;5108360;27;45444;-67
2023/07/01 01:03:26;;;;;;;1.35;1.23;;;23.90;54.20;;;;;;5108015;27;45719;-68
2023/07/01 01:05:57;;;;;;;1.20;1.10;;;23.90;54.30;;;;;;5108516;27;45321;-67
2023/07/01 01:08:26;;;;;;;1.40;1.30;;;23.90;54.20;;;;;;5108264;27;45298;-67
2023/07/01 01:10:53;;;;;;;1.42;1.33;;;23.80;54.10;;;;;;5108189;27;45549;-67
2023/07/01 01:13:20;;;;;;;1.65;1.30;;;23.90;54.10;;;;;;5107737;27;46520;-67
2023/07/01 01:15:47;;;;;;;1.30;1.20;;;23.90;54.20;;;;;;5108002;27;45306;-67
2023/07/01 01:18:16;;;;;;;2.95;1.45;;;23.80;54.00;;;;;;5108100;27;45310;-68
2023/07/01 01:20:43;;;;;;;2.20;1.20;;;23.90;54.00;;;;;;5105434;27;45538;-67
2023/07/01 01:23:13;;;;;;;1.48;1.38;;;23.80;53.90;;;;;;5107730;27;45314;-67
2023/07/01 01:25:43;;;;;;;1.30;1.00;;;23.80;53.90;;;;;;5107830;27;45450;-67
2023/07/01 01:28:12;;;;;;;1.65;1.27;;;23.80;54.00;;;;;;5107868;27;45359;-67
2023/07/01 01:30:39;;;;;;;1.30;1.20;;;23.80;54.00;;;;;;5107706;27;45321;-68
2023/07/01 01:33:06;;;;;;;1.67;1.58;;;23.80;54.00;;;;;;5107497;27;46541;-68
2023/07/01 01:35:33;;;;;;;1.27;1.15;;;23.80;54.00;;;;;;5107602;27;45319;-67
2023/07/01 01:38:02;;;;;;;2.30;1.45;;;23.80;54.00;;;;;;5107874;27;45272;-68
2023/07/01 01:40:32;;;;;;;1.45;1.20;;;23.80;53.90;;;;;;5107707;27;45423;-67
2023/07/01 01:43:02;;;;;;;1.08;1.08;;;23.80;53.90;;;;;;5107444;27;45351;-67
2023/07/01 01:45:31;;;;;;;1.75;1.52;;;23.80;54.40;;;;;;5107367;27;45399;-66
2023/07/01 01:47:57;;;;;;;1.65;1.40;;;23.80;53.90;;;;;;5107584;27;45236;-66
2023/07/01 01:50:24;;;;;;;1.30;1.20;;;23.70;53.70;;;;;;5107786;27;45285;-66
2023/07/01 01:52:51;;;;;;;1.17;1.08;;;23.80;53.70;;;;;;5106899;27;45306;-66
2023/07/01 01:55:18;;;;;;;1.45;1.27;;;23.80;53.80;;;;;;5107324;27;45326;-66
2023/07/01 01:57:45;;;;;;;1.02;1.02;;;23.80;53.70;;;;;;5107423;27;45393;-66
2023/07/01 02:00:13;;;;;;;1.80;1.20;;;23.70;53.70;;;;;;5107514;27;45254;-66
2023/07/01 02:02:41;;;;;;;1.40;1.30;;;23.70;53.70;;;;;;5107298;27;45353;-66
2023/07/01 02:05:08;;;;;;;1.10;1.10;;;23.70;53.70;;;;;;5107017;27;45267;-66
2023/07/01 02:07:35;;;;;;;1.10;1.00;;;23.70;53.80;;;;;;5107163;27;45393;-66
2023/07/01 02:10:02;;;;;;;1.20;1.10;;;23.70;53.80;;;;;;5107333;27;45294;-66
2023/07/01 02:12:30;;;;;;;1.45;1.10;;;23.70;53.70;;;;;;5106826;27;46653;-67
2023/07/01 02:14:57;;;;;;;1.33;1.23;;;23.70;53.60;;;;;;5107018;27;45269;-66
2023/07/01 02:17:23;;;;;;;1.20;1.10;;;23.70;53.70;;;;;;5107041;27;45326;-66
2023/07/01 02:19:52;;;;;;;1.60;1.50;;;23.70;53.60;;;;;;5107401;27;45342;-66
2023/07/01 02:22:19;;;;;;;1.48;1.30;;;23.70;53.60;;;;;;5106771;27;46845;-66
2023/07/01 02:24:45;;;;;;;1.52;1.38;;;23.70;53.50;;;;;;5107058;27;45269;-65
2023/07/01 02:27:12;;;;;;;1.30;1.20;;;23.70;53.50;;;;;;5107014;27;45318;-66
2023/07/01 02:29:39;;;;;;;1.58;1.48;;;23.70;53.60;;;;;;5107082;27;45457;-66
2023/07/01 02:32:07;;;;;;;1.23;0.93;;;23.60;53.60;;;;;;5106512;27;45302;-67
2023/07/01 02:34:34;;;;;;;1.50;1.40;;;23.70;53.60;;;;;;5106815;27;45335;-67
2023/07/01 02:37:02;;;;;;;2.10;1.30;;;23.70;53.60;;;;;;5106722;27;45284;-66
2023/07/01 02:39:29;;;;;;;1.25;1.15;;;23.60;53.60;;;;;;5106912;27;45397;-66
2023/07/01 02:41:56;;;;;;;1.30;1.20;;;23.60;53.70;;;;;;5106384;27;45660;-66
2023/07/01 02:44:23;;;;;;;1.10;1.00;;;23.60;53.60;;;;;;5106688;27;45306;-66
2023/07/01 02:46:50;;;;;;;1.45;1.35;;;23.60;53.50;;;;;;5106633;27;45467;-66
2023/07/01 02:49:16;;;;;;;1.10;1.00;;;23.60;53.50;;;;;;5106766;27;45310;-66
2023/07/01 02:51:43;;;;;;;1.58;1.38;;;23.60;53.50;;;;;;5106238;27;46641;-66
2023/07/01 02:54:11;;;;;;;1.40;1.30;;;23.60;53.40;;;;;;5106445;27;45240;-66
2023/07/01 02:56:38;;;;;;;2.22;1.33;;;23.60;53.50;;;;;;5106404;27;45466;-66
2023/07/01 02:59:05;;;;;;;1.48;1.38;;;23.60;53.40;;;;;;5106584;27;45659;-65
2023/07/01 03:01:32;;;;;;;1.20;1.10;;;23.60;53.50;;;;;;5106071;27;45306;-66
2023/07/01 03:03:59;;;;;;;1.23;1.20;;;23.60;53.60;;;;;;5106139;27;45310;-66
2023/07/01 03:06:26;;;;;;;1.13;1.08;;;23.50;53.40;;;;;;5106247;27;45301;-66
2023/07/01 03:08:53;;;;;;;1.40;1.30;;;23.50;53.40;;;;;;5106509;27;45417;-66
2023/07/01 03:11:21;;;;;;;1.30;1.20;;;23.50;53.40;;;;;;5105928;27;45824;-66
2023/07/01 03:13:50;;;;;;;1.35;1.20;;;23.50;53.40;;;;;;5105881;27;45341;-65
2023/07/01 03:16:19;;;;;;;2.20;1.38;;;23.50;53.30;;;;;;5105634;27;45360;-66
2023/07/01 03:18:46;;;;;;;0.90;0.90;;;23.50;53.50;;;;;;5106290;27;45351;-67
2023/07/01 03:21:13;;;;;;;1.45;1.20;;;23.50;53.30;;;;;;5105913;27;46755;-66
2023/07/01 03:23:40;;;;;;;0.80;0.80;;;23.50;53.30;;;;;;5106051;27;45398;-66
2023/07/01 03:26:06;;;;;;;1.27;1.20;;;23.50;53.40;;;;;;5106066;27;45274;-66
2023/07/01 03:28:35;;;;;;;3.70;1.23;;;23.50;53.30;;;;;;5106123;27;45362;-66
2023/07/01 03:31:04;;;;;;;1.10;1.10;;;23.50;53.40;;;;;;5105812;27;46399;-66
2023/07/01 03:33:31;;;;;;;1.67;1.25;;;23.40;53.30;;;;;;5105690;27;45158;-66
2023/07/01 03:35:57;;;;;;;1.95;1.30;;;23.40;53.20;;;;;;5105986;27;45318;-67
2023/07/01 03:38:24;;;;;;;2.83;1.48;;;23.40;53.40;;;;;;5106150;27;45240;-67
2023/07/01 03:40:51;;;;;;;1.30;1.20;;;23.40;53.30;;;;;;5105454;27;45328;-66
2023/07/01 03:43:18;;;;;;;1.15;1.13;;;23.40;53.30;;;;;;5105677;27;45303;-67
2023/07/01 03:45:46;;;;;;;1.20;1.10;;;23.40;53.20;;;;;;5106036;27;45290;-66
2023/07/01 03:48:13;;;;;;;2.15;1.55;;;23.40;53.20;;;;;;5106042;27;45452;-66
2023/07/01 03:50:40;;;;;;;1.83;1.23;;;23.40;53.80;;;;;;5105273;27;45795;-67
2023/07/01 03:53:07;;;;;;;1.27;1.17;;;23.30;53.20;;;;;;5105527;27;45614;-67
2023/07/01 03:55:34;;;;;;;1.48;1.17;;;23.40;53.20;;;;;;5105607;27;45333;-67
2023/07/01 03:58:01;;;;;;;1.27;1.17;;;23.40;53.20;;;;;;5105974;27;45308;-66
2023/07/01 04:00:28;;;;;;;0.90;0.90;;;23.40;53.20;;;;;;5105473;27;46349;-66
2023/07/01 04:02:57;;;;;;;1.20;1.10;;;23.40;53.20;;;;;;5105401;27;45419;-66
2023/07/01 04:05:24;;;;;;;1.15;1.05;;;23.30;53.10;;;;;;5105643;27;45299;-66
2023/07/01 04:07:50;;;;;;;1.10;1.08;;;23.30;53.10;;;;;;5105670;27;45055;-67
2023/07/01 04:10:17;;;;;;;1.33;1.20;;;23.30;53.10;;;;;;5105297;27;46380;-68
2023/07/01 04:12:44;;;;;;;2.00;1.10;;;23.30;53.10;;;;;;5105298;27;45411;-67
2023/07/01 04:15:11;;;;;;;1.20;1.10;;;23.30;53.10;;;;;;5105399;27;45418;-68
2023/07/01 04:17:41;;;;;;;1.40;1.30;;;23.30;53.20;;;;;;5105569;27;45429;-68
2023/07/01 04:20:10;;;;;;;1.20;1.20;;;23.30;53.20;;;;;;5105211;27;46299;-68
2023/07/01 04:22:37;;;;;;;1.60;1.45;;;23.20;53.80;;;;;;5105293;27;45458;-67
2023/07/01 04:25:05;;;;;;;1.17;1.08;;;23.20;53.10;;;;;;5105309;27;45321;-67
2023/07/01 04:27:31;;;;;;;1.00;1.00;;;23.20;53.10;;;;;;5105490;27;45298;-67
2023/07/01 04:29:58;;;;;;;1.00;1.00;;;23.20;53.00;;;;;;5107426;27;45470;-67
2023/07/01 04:32:25;;;;;;;0.98;0.98;;;23.20;53.00;;;;;;5108574;27;45319;-67
2023/07/01 04:34:52;;;;;;;1.35;1.00;;;23.20;53.00;;;;;;5108541;27;45331;-67
2023/07/01 04:37:21;;;;;;;1.90;1.10;;;23.20;53.00;;;;;;5108772;27;45558;-68
2023/07/01 04:39:47;;;;;;;1.52;1.13;;;23.20;52.90;;;;;;5108275;27;45281;-67
2023/07/01 04:42:14;;;;;;;1.20;1.10;;;23.20;53.00;;;;;;5108366;27;45319;-67
2023/07/01 04:44:41;;;;;;;2.13;1.10;;;23.20;53.00;;;;;;5108574;27;45453;-68
2023/07/01 04:47:08;;;;;;;1.02;1.00;;;23.20;53.10;;;;;;5108815;27;45412;-67
2023/07/01 04:49:35;;;;;;;1.20;1.10;;;23.20;53.10;;;;;;5108167;27;46261;-67
2023/07/01 04:52:02;;;;;;;1.08;1.08;;;23.30;53.10;;;;;;5107733;27;45330;-67
2023/07/01 04:54:30;;;;;;;1.48;1.15;;;23.20;53.00;;;;;;5108298;27;45373;-67
2023/07/01 04:56:57;;;;;;;1.33;1.23;;;23.30;53.00;;;;;;5108472;27;45346;-67
2023/07/01 04:59:24;;;;;;;1.15;1.05;;;23.30;53.00;;;;;;5108002;27;46439;-67
2023/07/01 05:01:51;;;;;;;1.50;1.38;;;23.30;53.00;;;;;;5108276;27;45268;-67
2023/07/01 05:04:18;;;;;;;0.90;0.90;;;23.30;52.90;;;;;;5108076;27;45322;-67
2023/07/01 05:06:44;;;;;;;1.30;1.20;;;23.20;53.10;;;;;;5108239;27;45467;-67
2023/07/01 05:09:11;;;;;;;1.50;1.40;;;23.20;52.70;;;;;;5107924;27;45311;-67
2023/07/01 05:11:40;;;;;;;1.20;1.10;;;23.30;52.90;;;;;;5107890;27;45369;-68
2023/07/01 05:14:06;;;;;;;1.45;1.10;;;23.30;52.90;;;;;;5107942;27;45279;-67
2023/07/01 05:16:33;;;;;;;1.02;1.02;;;23.30;52.70;;;;;;5108222;27;45490;-67
2023/07/01 05:19:00;;;;;;;1.17;1.08;;;23.30;52.70;;;;;;5107770;27;45374;-67
2023/07/01 05:21:28;;;;;;;1.10;1.10;;;23.30;52.70;;;;;;5107736;27;45394;-67
2023/07/01 05:23:55;;;;;;;1.42;1.17;;;23.30;52.70;;;;;;5107856;27;45325;-67
2023/07/01 05:26:22;;;;;;;1.13;1.10;;;23.30;52.70;;;;;;5108025;27;45375;-67
2023/07/01 05:28:50;;;;;;;1.10;1.00;;;23.30;52.60;;;;;;5107642;27;45275;-67
2023/07/01 05:31:17;;;;;;;1.30;1.20;;;23.30;52.60;;;;;;5107548;27;44707;-67
2023/07/01 05:33:47;;;;;;;1.30;1.00;;;23.30;52.60;;;;;;5107720;27;45235;-67
2023/07/01 05:36:14;;;;;;;1.10;1.10;;;23.30;52.60;;;;;;5107721;27;45425;-67
2023/07/01 05:38:41;;;;;;;1.25;1.00;;;23.30;52.60;;;;;;5107385;27;45390;-67
2023/07/01 05:41:08;;;;;;;1.00;1.00;;;23.30;52.50;;;;;;5106931;27;45308;-67
2023/07/01 05:43:35;;;;;;;2.95;1.30;;;23.30;52.50;;;;;;5107610;27;45317;-67
2023/07/01 05:46:03;;;;;;;1.20;1.10;;;23.30;52.50;;;;;;5107735;27;45254;-67
2023/07/01 05:48:30;;;;;;;0.98;0.98;;;23.20;52.40;;;;;;5107286;27;45350;-68
2023/07/01 05:50:56;;;;;;;1.25;1.17;;;23.20;52.40;;;;;;5106892;27;45335;-67
2023/07/01 05:53:23;;;;;;;1.17;1.08;;;23.30;52.40;;;;;;5107361;27;45442;-67
2023/07/01 05:55:50;;;;;;;1.58;1.15;;;23.30;52.40;;;;;;5107598;27;45247;-67
2023/07/01 05:58:17;;;;;;;0.90;0.90;;;23.30;52.30;;;;;;5107098;27;46238;-67
2023/07/01 06:00:45;;;;;;;1.23;1.13;;;23.30;52.30;;;;;;5107107;27;45388;-67
2023/07/01 06:03:13;;;;;;;1.15;1.05;;;23.20;52.30;;;;;;5107300;27;45462;-67
2023/07/01 06:05:40;;;;;;;1.13;1.08;;;23.30;52.20;;;;;;5107351;27;45363;-67
2023/07/01 06:08:07;;;;;;;1.50;1.10;;;23.30;52.20;;;;;;5106943;27;45258;-67
2023/07/01 06:10:34;;;;;;;1.05;1.05;;;23.30;52.10;;;;;;5106824;27;45377;-67
2023/07/01 06:13:01;;;;;;;2.95;1.20;;;23.30;52.20;;;;;;5107334;27;45348;-67
2023/07/01 06:15:27;;;;;;;1.02;1.02;;;23.30;52.10;;;;;;5107044;27;45525;-67
2023/07/01 06:17:54;;;;;;;0.88;0.88;;;23.30;52.10;;;;;;5106849;27;46476;-67
2023/07/01 06:20:23;;;;;;;0.85;0.85;;;23.30;52.10;;;;;;5106697;27;45256;-67
2023/07/01 06:22:50;;;;;;;1.33;1.10;;;23.30;52.10;;;;;;5106805;27;45310;-66
2023/07/01 06:25:16;;;;;;;0.80;0.80;;;23.30;52.00;;;;;;5106846;27;45584;-66
2023/07/01 06:27:43;;;;;;;1.00;1.00;;;23.30;52.00;;;;;;5106543;27;45528;-67
2023/07/01 06:30:11;;;;;;;0.85;0.85;;;23.30;51.90;;;;;;5106435;27;45327;-67
2023/07/01 06:32:37;;;;;;;1.25;1.20;;;23.30;51.80;;;;;;5106666;27;45398;-67
2023/07/01 06:35:05;;;;;;;1.30;0.98;;;23.30;51.80;;;;;;5106794;27;45421;-66
2023/07/01 06:37:33;;;;;;;2.22;1.10;;;23.40;51.90;;;;;;5106397;27;45361;-67
2023/07/01 06:40:00;;;;;;;1.63;1.20;;;23.40;51.90;;;;;;5106300;27;45376;-67
2023/07/01 06:42:27;;;;;;;1.00;1.00;;;23.30;51.70;;;;;;5106539;27;45347;-67
2023/07/01 06:44:53;;;;;;;1.15;0.95;;;23.30;51.70;;;;;;5106606;27;45310;-67
2023/07/01 06:47:20;;;;;;;1.08;0.98;;;23.30;51.60;;;;;;5106197;27;46420;-66
2023/07/01 06:49:47;;;;;;;1.08;0.98;;;23.40;51.70;;;;;;5106251;27;45366;-67
2023/07/01 06:52:14;;;;;;;1.52;0.95;;;23.30;51.60;;;;;;5105307;27;45358;-68
2023/07/01 06:54:42;;;;;;;1.42;0.90;;;23.40;51.60;;;;;;5106448;27;45348;-67
2023/07/01 06:57:09;;;;;;;3.03;1.00;;;23.40;51.60;;;;;;5106083;27;45517;-67
2023/07/01 06:59:36;;;;;;;1.20;1.10;;;23.40;51.50;;;;;;5106145;27;45306;-66
2023/07/01 07:02:03;;;;;;;1.02;1.00;;;23.40;51.60;;;;;;5106289;27;45308;-66
2023/07/01 07:04:30;;;;;;;1.85;1.23;;;23.40;51.30;;;;;;5106475;27;45233;-67
2023/07/01 07:06:56;;;;;;;0.82;0.82;;;23.40;51.40;;;;;;5105857;27;46473;-66
2023/07/01 07:09:23;;;;;;;2.05;1.05;;;23.40;51.20;;;;;;5106093;27;45263;-67
2023/07/01 07:11:54;;;;;;;0.82;0.82;;;23.40;51.10;;;;;;5106151;27;45458;-66
2023/07/01 07:14:21;;;;;;;1.40;1.10;;;23.50;51.20;;;;;;5106248;27;45172;-67
2023/07/01 07:16:48;;;;;;;1.63;0.90;;;23.50;51.10;;;;;;5105585;27;46274;-66
2023/07/01 07:19:15;;;;;;;1.00;1.00;;;23.40;50.90;;;;;;5105897;27;45421;-66
2023/07/01 07:21:44;;;;;;;1.15;0.90;;;23.50;51.10;;;;;;5106032;27;45382;-67
2023/07/01 07:24:11;;;;;;;0.95;0.95;;;23.50;51.10;;;;;;5106149;27;45405;-68
2023/07/01 07:26:38;;;;;;;1.10;1.00;;;23.50;51.00;;;;;;5106078;27;45952;-67
2023/07/01 07:29:06;;;;;;;1.27;0.90;;;23.50;51.10;;;;;;5105794;27;45461;-68
2023/07/01 07:31:33;;;;;;;1.45;0.75;;;23.50;51.00;;;;;;5105893;27;45359;-67
2023/07/01 07:34:01;;;;;;;0.82;0.80;;;23.50;50.80;;;;;;5106211;27;45341;-67
2023/07/01 07:36:28;;;;;;;0.90;0.90;;;23.50;50.80;;;;;;5105865;27;45304;-67
2023/07/01 07:38:54;;;;;;;1.88;1.10;;;23.60;50.80;;;;;;5105725;27;45387;-67
2023/07/01 07:41:21;;;;;;;0.88;0.88;;;23.60;50.70;;;;;;5105750;27;45291;-67
2023/07/01 07:43:48;;;;;;;0.80;0.80;;;23.60;50.50;;;;;;5106024;27;45454;-66
2023/07/01 07:46:16;;;;;;;1.17;1.08;;;23.60;50.60;;;;;;5105421;27;45260;-67
2023/07/01 07:48:43;;;;;;;1.08;1.08;;;23.60;50.40;;;;;;5105566;27;45320;-67
2023/07/01 07:51:10;;;;;;;1.00;1.00;;;23.60;50.30;;;;;;5105262;27;45312;-69
2023/07/01 07:53:38;;;;;;;1.38;1.05;;;23.60;50.30;;;;;;5105630;27;45650;-67
2023/07/01 07:56:05;;;;;;;1.95;0.90;;;23.60;50.50;;;;;;5105480;27;45256;-66
2023/07/01 07:58:32;;;;;;;1.08;1.00;;;23.60;50.40;;;;;;5105434;27;45319;-67
2023/07/01 08:00:59;;;;;;;0.98;0.98;;;23.60;50.50;;;;;;5105663;27;45295;-66
2023/07/01 08:03:27;;;;;;;0.90;0.90;;;23.70;50.50;;;;;;5107471;27;45321;-67
2023/07/01 08:05:54;;;;;;;1.58;1.02;;;23.70;50.60;;;;;;5108694;27;46403;-68
2023/07/01 08:08:21;;;;;;;3.85;1.10;;;23.70;50.20;;;;;;5108523;27;45304;-69
2023/07/01 08:10:48;;;;;;;4.63;1.35;;;23.70;48.70;;;;;;5092330;27;45310;-68
2023/07/01 08:13:14;;;;;;;1.08;0.90;;;23.60;48.00;;;;;;5103340;27;45510;-68
2023/07/01 08:15:42;;;;;;;1.85;1.50;;;23.60;48.20;;;;;;5089173;27;45727;-68
2023/07/01 08:18:09;;;;;;;2.97;1.15;;;23.50;48.10;;;;;;5106209;27;45470;-68
2023/07/01 08:20:38;;;;;;;2.05;1.35;;;23.50;48.10;;;;;;5102780;27;45569;-69
2023/07/01 08:23:05;;;;;;;1.88;1.20;;;23.50;47.60;;;;;;5108522;27;45627;-68
2023/07/01 08:25:31;;;;;;;5.80;1.42;;;23.50;47.70;;;;;;5107374;27;45358;-68
2023/07/01 08:27:59;;;;;;;3.90;1.30;;;23.50;47.00;;;;;;5108249;27;45372;-68
2023/07/01 08:30:26;;;;;;;1.10;0.95;;;23.50;47.50;;;;;;5109528;27;45330;-68
2023/07/01 08:32:52;;;;;;;3.17;1.35;;;23.50;47.70;;;;;;5127468;27;45381;-69
2023/07/01 08:35:19;;;;;;;2.17;1.10;;;23.50;48.00;;;;;;5090697;27;46662;-67
2023/07/01 08:37:47;;;;;;;2.28;1.38;;;23.60;48.20;;;;;;5087623;27;45435;-68
2023/07/01 08:40:15;;;;;;;3.92;1.40;;;23.60;48.40;;;;;;5107236;27;45300;-68
2023/07/01 08:42:44;;;;;;;1.35;1.13;;;23.70;48.60;;;;;;5108594;27;45328;-68
2023/07/01 08:45:11;;;;;;;2.65;1.20;;;23.70;48.70;;;;;;5107019;27;45347;-68
2023/07/01 08:47:38;;;;;;;2.67;1.10;;;23.70;49.30;;;;;;5106126;27;45367;-68
2023/07/01 08:50:06;;;;;;;1.48;0.98;;;23.80;48.80;;;;;;5107199;27;45281;-68
2023/07/01 08:52:33;;;;;;;6.85;1.20;;;23.80;49.00;;;;;;5102847;27;45434;-68
2023/07/01 08:55:02;;;;;;;3.00;1.30;;;23.80;48.90;;;;;;5087719;27;46355;-68
2023/07/01 08:57:29;;;;;;;1.08;0.93;;;23.90;49.10;;;;;;5099566;27;45552;-67
2023/07/01 08:59:55;;;;;;;1.65;1.15;;;23.90;48.80;;;;;;5107153;27;45452;-67
2023/07/01 09:02:23;;;;;;;3.60;1.10;;;23.90;48.70;;;;;;5107708;27;45225;-68
2023/07/01 09:04:49;;;;;;;2.42;0.90;;;23.90;49.00;;;;;;5107175;27;46359;-67
2023/07/01 09:07:16;;;;;;;2.25;1.20;;;23.90;49.10;;;;;;5106092;27;45465;-67
2023/07/01 09:09:44;;;;;;;3.53;1.42;;;24.00;49.10;;;;;;5104908;27;45648;-65
2023/07/01 09:12:13;;;;;;;2.35;1.20;;;24.00;48.80;;;;;;5108210;27;45423;-67
2023/07/01 09:14:59;;;;;;;2.20;1.02;;;24.00;48.70;;;;;;5104120;27;46590;-67
2023/07/01 09:17:29;;;;;;;4.97;1.33;;;24.10;48.90;;;;;;5107842;27;45252;-67
2023/07/01 09:19:59;;;;;;;4.25;1.20;;;24.10;48.90;;;;;;5107884;27;45419;-68
2023/07/01 09:22:25;;;;;;;3.65;1.38;;;24.10;49.00;;;;;;5108253;27;45584;-68
2023/07/01 09:24:52;;;;;;;4.03;1.38;;;24.20;49.10;;;;;;5104197;27;46408;-68
2023/07/01 09:27:20;;;;;;;1.25;1.00;;;24.20;48.80;;;;;;5103988;27;45372;-68
2023/07/01 09:29:47;;;;;;;3.60;1.27;;;24.20;49.00;;;;;;5107629;27;45279;-67
2023/07/01 09:32:26;;;;;;;4.30;1.20;;;24.20;48.90;;;;;;5108277;27;45320;-67
2023/07/01 09:34:55;;;;;;;1.30;1.02;;;24.30;49.20;;;;;;5105563;27;45744;-68
2023/07/01 09:37:22;;;;;;;3.00;1.38;;;24.30;49.20;;;;;;5103947;27;45370;-68
2023/07/01 09:39:52;;;;;;;2.38;1.13;;;24.40;49.30;;;;;;5107275;27;45353;-68
2023/07/01 09:42:20;;;;;;;2.58;1.38;;;24.40;49.30;;;;;;5107960;27;45407;-68
2023/07/01 09:45:06;;;;;;;1.92;1.17;;;24.40;47.70;;;;;;5107600;27;46194;-68
2023/07/01 09:47:33;;;;;;;1.17;1.08;;;24.40;48.70;;;;;;5105414;27;45359;-68
2023/07/01 09:50:01;;;;;;;1.92;1.30;;;24.40;48.60;;;;;;5107631;27;45492;-68
2023/07/01 09:52:37;;;;;;;4.00;1.27;;;24.50;47.90;;;;;;5106213;27;45423;-68
2023/07/01 09:55:04;;;;;;;1.70;1.20;;;24.50;47.70;;;;;;5104070;27;47522;-68
2023/07/01 09:57:32;;;;;;;3.13;1.20;;;24.50;48.30;;;;;;5104741;27;45276;-68
2023/07/01 09:59:59;;;;;;;1.23;1.00;;;24.60;48.10;;;;;;5105942;27;45391;-68
2023/07/01 10:02:27;;;;;;;3.13;1.20;;;24.60;48.10;;;;;;5103933;27;45535;-69
2023/07/01 10:04:55;;;;;;;1.88;1.13;;;24.60;48.20;;;;;;5105122;27;45398;-68
2023/07/01 10:07:22;;;;;;;1.20;1.10;;;24.70;48.50;;;;;;5103200;27;45343;-68
2023/07/01 10:09:51;;;;;;;1.55;1.10;;;24.70;48.50;;;;;;5101230;27;45273;-68
2023/07/01 10:12:18;;;;;;;1.50;1.10;;;24.70;48.70;;;;;;5103946;27;45380;-68
2023/07/01 10:14:48;;;;;;;1.52;1.10;;;24.70;48.80;;;;;;5102097;27;46910;-68
2023/07/01 10:17:15;;;;;;;2.03;0.80;;;24.70;48.90;;;;;;5104450;27;45318;-69
2023/07/01 10:19:46;;;;;;;1.00;0.90;;;24.70;49.00;;;;;;5099013;27;45420;-69
2023/07/01 10:22:27;;;;;;;1.25;1.05;;;24.70;49.00;;;;;;5096741;27;45578;-68
2023/07/01 10:25:01;;;;;;;1.50;0.90;;;24.70;48.90;;;;;;5090885;27;46662;-69
2023/07/01 10:28:04;;;;;;;1.40;1.17;;;24.70;48.80;;;;;;5097203;27;45330;-69
2023/07/01 10:31:04;;;;;;;1.83;1.15;;;24.70;49.00;;;;;;5085688;27;45591;-69
2023/07/01 10:33:52;;;;;;;1.92;1.00;;;24.80;48.50;;;;;;5094676;27;45421;-68
2023/07/01 10:36:19;;;;;;;1.85;1.15;;;24.80;48.40;;;;;;5097867;27;45642;-69
2023/07/01 10:38:46;;;;;;;1.20;1.13;;;24.80;48.60;;;;;;5106287;27;45511;-68
2023/07/01 10:41:13;;;;;;;1.88;1.23;;;24.80;48.70;;;;;;5106154;27;45362;-68
2023/07/01 10:43:40;;;;;;;1.05;1.02;;;24.80;48.30;;;;;;5104388;27;45450;-69
2023/07/01 10:46:08;;;;;;;1.73;1.30;;;24.80;48.40;;;;;;5092609;27;47448;-68
2023/07/01 10:48:35;;;;;;;1.83;0.90;;;24.80;48.30;;;;;;5106153;27;45343;-68
2023/07/01 10:51:06;;;;;;;2.22;1.25;;;24.90;48.50;;;;;;5104059;27;45400;-69
2023/07/01 10:53:59;;;;;;;1.20;1.10;;;24.90;47.80;;;;;;5091981;27;45452;-68
2023/07/01 10:56:28;;;;;;;1.98;1.30;;;24.80;48.40;;;;;;5091174;27;46775;-68
2023/07/01 10:59:21;;;;;;;2.15;1.10;;;24.90;48.10;;;;;;5102863;27;45564;-68
2023/07/01 11:01:49;;;;;;;2.05;1.05;;;24.90;48.20;;;;;;5103688;27;45142;-69
2023/07/01 11:04:19;;;;;;;2.78;1.55;;;24.90;48.20;;;;;;5095741;27;45470;-68
2023/07/01 11:06:48;;;;;;;1.45;1.17;;;24.90;48.20;;;;;;5094937;27;47083;-68
2023/07/01 11:09:16;;;;;;;1.48;1.38;;;24.90;48.10;;;;;;5101160;27;45283;-68
2023/07/01 11:11:43;;;;;;;2.45;1.20;;;24.90;48.10;;;;;;5093435;27;45477;-69
2023/07/01 11:14:10;;;;;;;1.23;1.10;;;25.00;48.20;;;;;;5098524;27;45524;-69
2023/07/01 11:16:38;;;;;;;1.90;1.45;;;25.00;48.10;;;;;;5096900;27;46427;-68
2023/07/01 11:19:06;;;;;;;1.63;1.20;;;25.00;48.10;;;;;;5101012;27;45624;-68
2023/07/01 11:21:32;;;;;;;1.00;0.90;;;25.00;48.00;;;;;;5104013;27;45487;-69
2023/07/01 11:24:02;;;;;;;2.10;1.38;;;25.00;47.90;;;;;;5099883;27;45593;-69
2023/07/01 11:26:29;;;;;;;1.50;1.35;;;25.10;48.70;;;;;;5098447;27;48025;-69
2023/07/01 11:28:56;;;;;;;2.28;1.48;;;25.10;48.00;;;;;;5098736;27;45476;-69
2023/07/01 11:31:25;;;;;;;1.80;1.55;;;25.10;48.00;;;;;;5101307;27;45431;-69
2023/07/01 11:33:52;;;;;;;1.88;1.20;;;25.10;48.00;;;;;;5104845;27;45548;-69
2023/07/01 11:36:20;;;;;;;2.00;1.30;;;25.10;48.00;;;;;;4956268;27;46393;-70
2023/07/01 11:38:47;;;;;;;1.20;1.10;;;25.10;48.10;;;;;;4942027;27;45864;-70
2023/07/01 11:41:16;;;;;;;2.28;1.40;;;25.10;48.10;;;;;;4945378;27;46591;-70
2023/07/01 11:43:43;;;;;;;1.77;1.45;;;25.10;48.10;;;;;;4937858;27;45948;-70
2023/07/01 11:46:12;;;;;;;1.27;1.13;;;25.10;48.10;;;;;;4939550;27;46185;-69
2023/07/01 11:48:39;;;;;;;1.50;1.40;;;25.20;48.20;;;;;;5003267;27;45789;-67
2023/07/01 11:51:06;;;;;;;2.42;1.20;;;25.10;48.10;;;;;;5108831;27;45516;-68
2023/07/01 11:53:33;;;;;;;1.92;1.27;;;25.20;48.10;;;;;;5106448;27;45460;-68
2023/07/01 11:56:02;;;;;;;1.13;0.98;;;25.20;48.10;;;;;;5103117;27;46615;-70
2023/07/01 11:58:31;;;;;;;1.88;1.20;;;25.20;48.10;;;;;;5098804;27;45487;-68
2023/07/01 12:00:57;;;;;;;1.98;1.35;;;25.20;48.00;;;;;;5102387;27;45276;-69
2023/07/01 12:03:24;;;;;;;1.50;1.38;;;25.20;48.00;;;;;;5104460;27;45422;-69
2023/07/01 12:05:51;;;;;;;1.75;1.30;;;25.30;48.00;;;;;;5107786;27;45535;-68
2023/07/01 12:08:18;;;;;;;1.30;1.20;;;25.30;48.00;;;;;;5105598;27;45485;-68
2023/07/01 12:10:45;;;;;;;3.50;1.50;;;25.30;48.00;;;;;;5105419;27;45377;-68
2023/07/01 12:13:31;;;;;;;4.13;1.50;;;25.30;47.90;;;;;;5026004;27;45527;-70
2023/07/01 12:15:59;;;;;;;1.63;1.08;;;25.30;48.00;;;;;;5088954;27;46483;-69
2023/07/01 12:18:28;;;;;;;2.22;1.38;;;25.30;47.90;;;;;;5097214;27;45257;-70
2023/07/01 12:20:55;;;;;;;3.58;1.50;;;25.30;48.00;;;;;;5107982;27;45475;-70
2023/07/01 12:23:22;;;;;;;2.75;1.42;;;25.30;48.10;;;;;;5107383;27;45335;-70
2023/07/01 12:25:49;;;;;;;1.85;1.40;;;25.30;47.80;;;;;;5109248;27;45309;-70
2023/07/01 12:28:16;;;;;;;3.60;1.20;;;25.30;48.10;;;;;;5108456;27;45239;-70
2023/07/01 12:30:44;;;;;;;1.55;1.33;;;25.30;48.00;;;;;;5106524;27;45377;-70
2023/07/01 12:33:11;;;;;;;1.65;1.20;;;25.30;48.00;;;;;;5109297;27;45370;-70
2023/07/01 12:35:40;;;;;;;1.30;1.23;;;25.40;47.80;;;;;;5108875;27;46407;-70
2023/07/01 12:38:08;;;;;;;1.40;1.30;;;25.40;47.90;;;;;;5108252;27;45507;-69
2023/07/01 12:40:34;;;;;;;2.83;1.60;;;25.40;47.90;;;;;;5108892;27;45375;-70
2023/07/01 12:43:01;;;;;;;2.78;1.45;;;25.40;47.90;;;;;;5109025;27;45384;-70
2023/07/01 12:45:28;;;;;;;2.70;1.50;;;25.40;47.60;;;;;;5103792;27;46340;-70
2023/07/01 12:47:56;;;;;;;2.38;1.27;;;25.30;47.50;;;;;;5107271;27;45360;-70
2023/07/01 12:50:23;;;;;;;3.40;1.38;;;25.30;47.80;;;;;;5107833;27;45374;-69
2023/07/01 12:52:52;;;;;;;1.58;1.13;;;25.30;47.80;;;;;;5108587;27;45395;-71